Terminal Aerodrome Forecast
Issued by NWS

Home | Current Version | Previous Version | Text Only | Print | Product List | Glossary On
Versions: 1 2 3 4 5 6 7 8 9 10 11 12 13 14 15 16 17 18 19 20 21 22 23 24 25
000
FTUS45 KCYS 211700 RRA
TAFRWL
TAF
KRWL 211742Z 2118/2218 16010KT P6SM BKN120
     FM212200 10009KT P6SM VCSH BKN070 OVC100
     FM220600 20006KT P6SM -SHRA BKN050=

USA.gov is the U.S. government's official web portal to all federal, state and local government web resources and services.